sensor_id;sensor_type;location;lat;lon;timestamp;temperature;humidity
29775;DHT22;16676;51.202;6.774;2023-04-10T00:02:52;17.70;60.60
29775;DHT22;16676;51.202;6.774;2023-04-10T00:06:54;17.60;60.40
29775;DHT22;16676;51.202;6.774;2023-04-10T00:10:57;17.70;60.60
29775;DHT22;16676;51.202;6.774;2023-04-10T00:14:59;17.60;60.60
29775;DHT22;16676;51.202;6.774;2023-04-10T00:19:01;17.60;60.60
29775;DHT22;16676;51.202;6.774;2023-04-10T00:23:03;17.60;60.60
29775;DHT22;16676;51.202;6.774;2023-04-10T00:27:06;17.60;61.40
29775;DHT22;16676;51.202;6.774;2023-04-10T00:31:08;17.60;60.80
29775;DHT22;16676;51.202;6.774;2023-04-10T00:35:10;17.60;60.80
29775;DHT22;16676;51.202;6.774;2023-04-10T00:39:12;17.60;60.80
29775;DHT22;16676;51.202;6.774;2023-04-10T00:43:17;17.60;60.80
29775;DHT22;16676;51.202;6.774;2023-04-10T00:47:20;17.60;60.70
29775;DHT22;16676;51.202;6.774;2023-04-10T00:51:22;17.60;60.60
29775;DHT22;16676;51.202;6.774;2023-04-10T00:55:24;17.50;60.60
29775;DHT22;16676;51.202;6.774;2023-04-10T00:59:28;17.50;60.70
29775;DHT22;16676;51.202;6.774;2023-04-10T01:03:30;17.50;60.60
29775;DHT22;16676;51.202;6.774;2023-04-10T01:07:42;17.50;60.70
29775;DHT22;16676;51.202;6.774;2023-04-10T01:11:53;17.50;60.80
29775;DHT22;16676;51.202;6.774;2023-04-10T01:16:00;17.50;60.80
29775;DHT22;16676;51.202;6.774;2023-04-10T01:20:07;17.50;60.70
29775;DHT22;16676;51.202;6.774;2023-04-10T01:24:20;17.40;60.60
29775;DHT22;16676;51.202;6.774;2023-04-10T01:32:57;17.40;60.80
29775;DHT22;16676;51.202;6.774;2023-04-10T01:37:01;17.40;60.80
29775;DHT22;16676;51.202;6.774;2023-04-10T01:41:04;17.40;60.80
29775;DHT22;16676;51.202;6.774;2023-04-10T01:45:08;17.40;60.80
29775;DHT22;16676;51.202;6.774;2023-04-10T01:49:14;17.40;60.70
29775;DHT22;16676;51.202;6.774;2023-04-10T01:53:17;17.40;60.80
29775;DHT22;16676;51.202;6.774;2023-04-10T01:57:19;17.30;60.80
29775;DHT22;16676;51.202;6.774;2023-04-10T02:01:21;17.40;60.80
29775;DHT22;16676;51.202;6.774;2023-04-10T02:05:28;17.30;60.70
29775;DHT22;16676;51.202;6.774;2023-04-10T02:09:41;17.40;60.80
29775;DHT22;16676;51.202;6.774;2023-04-10T02:13:47;17.30;60.70
29775;DHT22;16676;51.202;6.774;2023-04-10T02:17:51;17.30;60.90
29775;DHT22;16676;51.202;6.774;2023-04-10T02:21:55;17.30;60.80
29775;DHT22;16676;51.202;6.774;2023-04-10T02:26:05;17.30;61.60
29775;DHT22;16676;51.202;6.774;2023-04-10T02:30:07;17.30;60.80
29775;DHT22;16676;51.202;6.774;2023-04-10T02:34:10;17.30;60.80
29775;DHT22;16676;51.202;6.774;2023-04-10T02:38:13;17.30;60.90
29775;DHT22;16676;51.202;6.774;2023-04-10T02:42:15;17.30;61.20
29775;DHT22;16676;51.202;6.774;2023-04-10T02:46:17;17.30;60.90
29775;DHT22;16676;51.202;6.774;2023-04-10T02:50:19;17.30;60.90
29775;DHT22;16676;51.202;6.774;2023-04-10T02:54:22;17.20;60.80
29775;DHT22;16676;51.202;6.774;2023-04-10T02:58:24;17.20;60.80
29775;DHT22;16676;51.202;6.774;2023-04-10T03:02:27;17.20;60.80
29775;DHT22;16676;51.202;6.774;2023-04-10T03:06:29;17.20;60.90
29775;DHT22;16676;51.202;6.774;2023-04-10T03:10:32;17.20;60.90
29775;DHT22;16676;51.202;6.774;2023-04-10T03:14:34;17.20;60.80
29775;DHT22;16676;51.202;6.774;2023-04-10T03:18:36;17.20;61.70
29775;DHT22;16676;51.202;6.774;2023-04-10T03:22:38;17.20;60.80
29775;DHT22;16676;51.202;6.774;2023-04-10T03:26:41;17.20;60.90
29775;DHT22;16676;51.202;6.774;2023-04-10T03:30:44;17.20;60.80
29775;DHT22;16676;51.202;6.774;2023-04-10T03:34:45;17.20;60.80
29775;DHT22;16676;51.202;6.774;2023-04-10T03:38:47;17.20;60.90
29775;DHT22;16676;51.202;6.774;2023-04-10T03:42:51;17.20;61.00
29775;DHT22;16676;51.202;6.774;2023-04-10T03:46:53;17.20;61.00
29775;DHT22;16676;51.202;6.774;2023-04-10T03:50:55;17.20;61.00
29775;DHT22;16676;51.202;6.774;2023-04-10T03:54:57;17.10;61.00
29775;DHT22;16676;51.202;6.774;2023-04-10T03:59:00;17.10;60.90
29775;DHT22;16676;51.202;6.774;2023-04-10T04:03:02;17.10;61.00
29775;DHT22;16676;51.202;6.774;2023-04-10T04:07:04;17.10;61.00
29775;DHT22;16676;51.202;6.774;2023-04-10T04:11:06;17.10;61.00
29775;DHT22;16676;51.202;6.774;2023-04-10T04:15:10;17.10;61.00
29775;DHT22;16676;51.202;6.774;2023-04-10T04:19:12;17.10;61.00
29775;DHT22;16676;51.202;6.774;2023-04-10T04:23:14;17.10;61.00
29775;DHT22;16676;51.202;6.774;2023-04-10T04:27:17;17.10;61.00
29775;DHT22;16676;51.202;6.774;2023-04-10T04:31:22;17.10;61.10
29775;DHT22;16676;51.202;6.774;2023-04-10T04:35:24;17.10;61.20
29775;DHT22;16676;51.202;6.774;2023-04-10T04:39:26;17.10;61.20
29775;DHT22;16676;51.202;6.774;2023-04-10T04:43:28;17.10;61.20
29775;DHT22;16676;51.202;6.774;2023-04-10T04:47:32;17.10;61.20
29775;DHT22;16676;51.202;6.774;2023-04-10T04:51:34;17.10;61.20
29775;DHT22;16676;51.202;6.774;2023-04-10T04:55:37;17.00;61.20
29775;DHT22;16676;51.202;6.774;2023-04-10T04:59:39;17.00;61.20
29775;DHT22;16676;51.202;6.774;2023-04-10T05:03:42;17.00;61.20
29775;DHT22;16676;51.202;6.774;2023-04-10T05:07:44;17.10;61.20
29775;DHT22;16676;51.202;6.774;2023-04-10T05:11:46;17.10;61.20
29775;DHT22;16676;51.202;6.774;2023-04-10T05:15:50;17.00;61.10
29775;DHT22;16676;51.202;6.774;2023-04-10T05:19:53;17.00;61.10
29775;DHT22;16676;51.202;6.774;2023-04-10T05:23:55;17.00;61.00
29775;DHT22;16676;51.202;6.774;2023-04-10T05:27:57;17.00;61.00
29775;DHT22;16676;51.202;6.774;2023-04-10T05:31:59;17.00;61.20
29775;DHT22;16676;51.202;6.774;2023-04-10T05:36:03;17.10;61.10
29775;DHT22;16676;51.202;6.774;2023-04-10T05:40:07;17.10;61.10
29775;DHT22;16676;51.202;6.774;2023-04-10T05:44:09;17.00;61.00
29775;DHT22;16676;51.202;6.774;2023-04-10T05:48:11;17.00;61.00
29775;DHT22;16676;51.202;6.774;2023-04-10T05:52:14;17.00;60.90
29775;DHT22;16676;51.202;6.774;2023-04-10T05:56:16;17.10;60.90
29775;DHT22;16676;51.202;6.774;2023-04-10T06:00:18;17.10;60.90
29775;DHT22;16676;51.202;6.774;2023-04-10T06:04:20;17.00;60.70
29775;DHT22;16676;51.202;6.774;2023-04-10T06:08:24;17.10;61.50
29775;DHT22;16676;51.202;6.774;2023-04-10T06:12:26;17.10;60.70
29775;DHT22;16676;51.202;6.774;2023-04-10T06:16:28;17.10;60.70
29775;DHT22;16676;51.202;6.774;2023-04-10T06:20:30;17.10;60.60
29775;DHT22;16676;51.202;6.774;2023-04-10T06:24:33;17.10;60.50
29775;DHT22;16676;51.202;6.774;2023-04-10T06:28:35;17.10;60.50
29775;DHT22;16676;51.202;6.774;2023-04-10T06:32:37;17.10;60.30
29775;DHT22;16676;51.202;6.774;2023-04-10T06:36:39;17.10;60.20
29775;DHT22;16676;51.202;6.774;2023-04-10T06:40:42;17.10;60.10
29775;DHT22;16676;51.202;6.774;2023-04-10T06:44:44;17.20;59.90
29775;DHT22;16676;51.202;6.774;2023-04-10T06:48:46;17.20;60.00
29775;DHT22;16676;51.202;6.774;2023-04-10T06:52:48;17.20;59.70
29775;DHT22;16676;51.202;6.774;2023-04-10T06:56:54;17.20;60.30
29775;DHT22;16676;51.202;6.774;2023-04-10T07:00:58;17.20;59.50
29775;DHT22;16676;51.202;6.774;2023-04-10T07:05:04;17.30;59.40
29775;DHT22;16676;51.202;6.774;2023-04-10T07:09:06;17.30;59.30
29775;DHT22;16676;51.202;6.774;2023-04-10T07:13:10;17.40;59.20
29775;DHT22;16676;51.202;6.774;2023-04-10T07:17:12;17.30;59.00
29775;DHT22;16676;51.202;6.774;2023-04-10T07:21:13;17.40;58.90
29775;DHT22;16676;51.202;6.774;2023-04-10T07:25:16;17.40;58.70
29775;DHT22;16676;51.202;6.774;2023-04-10T07:29:19;17.50;58.70
29775;DHT22;16676;51.202;6.774;2023-04-10T07:33:21;17.50;58.40
29775;DHT22;16676;51.202;6.774;2023-04-10T07:37:23;17.50;58.30
29775;DHT22;16676;51.202;6.774;2023-04-10T07:41:25;17.50;58.20
29775;DHT22;16676;51.202;6.774;2023-04-10T07:45:29;17.60;58.10
29775;DHT22;16676;51.202;6.774;2023-04-10T07:49:30;17.60;57.80
29775;DHT22;16676;51.202;6.774;2023-04-10T07:53:32;17.60;57.60
29775;DHT22;16676;51.202;6.774;2023-04-10T07:57:35;17.70;57.40
29775;DHT22;16676;51.202;6.774;2023-04-10T08:01:38;17.80;57.20
29775;DHT22;16676;51.202;6.774;2023-04-10T08:05:40;17.90;57.10
29775;DHT22;16676;51.202;6.774;2023-04-10T08:09:42;18.00;56.50
29775;DHT22;16676;51.202;6.774;2023-04-10T08:13:44;18.00;56.50
29775;DHT22;16676;51.202;6.774;2023-04-10T08:17:47;17.90;56.60
29775;DHT22;16676;51.202;6.774;2023-04-10T08:21:49;17.90;56.40
29775;DHT22;16676;51.202;6.774;2023-04-10T08:25:51;17.90;56.60
29775;DHT22;16676;51.202;6.774;2023-04-10T08:29:53;17.90;56.60
29775;DHT22;16676;51.202;6.774;2023-04-10T08:33:56;17.80;56.70
29775;DHT22;16676;51.202;6.774;2023-04-10T08:37:58;17.80;56.60
29775;DHT22;16676;51.202;6.774;2023-04-10T08:42:00;17.80;56.40
29775;DHT22;16676;51.202;6.774;2023-04-10T08:46:03;17.80;56.70
29775;DHT22;16676;51.202;6.774;2023-04-10T08:50:10;17.80;57.00
29775;DHT22;16676;51.202;6.774;2023-04-10T08:54:18;17.80;56.70
29775;DHT22;16676;51.202;6.774;2023-04-10T08:58:21;17.80;56.50
29775;DHT22;16676;51.202;6.774;2023-04-10T09:02:24;17.80;56.50
29775;DHT22;16676;51.202;6.774;2023-04-10T09:06:27;17.80;56.70
29775;DHT22;16676;51.202;6.774;2023-04-10T09:10:31;17.80;56.80
29775;DHT22;16676;51.202;6.774;2023-04-10T09:14:33;17.90;57.10
29775;DHT22;16676;51.202;6.774;2023-04-10T09:18:47;18.00;57.10
29775;DHT22;16676;51.202;6.774;2023-04-10T09:22:51;18.00;57.00
29775;DHT22;16676;51.202;6.774;2023-04-10T09:26:53;18.10;57.00
29775;DHT22;16676;51.202;6.774;2023-04-10T09:30:55;18.10;57.00
29775;DHT22;16676;51.202;6.774;2023-04-10T09:34:57;18.10;56.70
29775;DHT22;16676;51.202;6.774;2023-04-10T09:39:01;18.10;56.80
29775;DHT22;16676;51.202;6.774;2023-04-10T09:43:16;18.10;56.60
29775;DHT22;16676;51.202;6.774;2023-04-10T09:47:19;18.10;56.80
29775;DHT22;16676;51.202;6.774;2023-04-10T09:51:27;18.20;56.90
29775;DHT22;16676;51.202;6.774;2023-04-10T09:55:32;18.20;56.80
29775;DHT22;16676;51.202;6.774;2023-04-10T09:59:37;18.10;56.70
29775;DHT22;16676;51.202;6.774;2023-04-10T10:03:40;18.20;56.90
29775;DHT22;16676;51.202;6.774;2023-04-10T10:07:44;18.20;56.70
29775;DHT22;16676;51.202;6.774;2023-04-10T10:11:48;18.20;56.80
29775;DHT22;16676;51.202;6.774;2023-04-10T10:15:59;18.20;56.70
29775;DHT22;16676;51.202;6.774;2023-04-10T10:20:08;18.30;56.60
29775;DHT22;16676;51.202;6.774;2023-04-10T10:24:10;18.30;56.50
29775;DHT22;16676;51.202;6.774;2023-04-10T10:28:15;18.30;56.50
29775;DHT22;16676;51.202;6.774;2023-04-10T10:32:19;18.40;56.50
29775;DHT22;16676;51.202;6.774;2023-04-10T10:36:22;18.30;56.50
29775;DHT22;16676;51.202;6.774;2023-04-10T10:40:28;18.30;56.50
29775;DHT22;16676;51.202;6.774;2023-04-10T10:44:40;18.30;56.40
29775;DHT22;16676;51.202;6.774;2023-04-10T10:48:55;18.40;56.40
29775;DHT22;16676;51.202;6.774;2023-04-10T10:52:57;18.40;56.40
29775;DHT22;16676;51.202;6.774;2023-04-10T10:57:01;18.40;56.40
29775;DHT22;16676;51.202;6.774;2023-04-10T11:01:07;18.40;56.40
29775;DHT22;16676;51.202;6.774;2023-04-10T11:05:22;18.30;56.40
29775;DHT22;16676;51.202;6.774;2023-04-10T11:09:45;18.40;56.40
29775;DHT22;16676;51.202;6.774;2023-04-10T11:14:12;18.30;56.30
29775;DHT22;16676;51.202;6.774;2023-04-10T11:18:18;18.40;56.40
29775;DHT22;16676;51.202;6.774;2023-04-10T11:22:23;18.40;56.40
29775;DHT22;16676;51.202;6.774;2023-04-10T11:26:39;18.40;56.50
29775;DHT22;16676;51.202;6.774;2023-04-10T11:30:41;18.40;56.40
29775;DHT22;16676;51.202;6.774;2023-04-10T11:34:44;18.40;56.40
29775;DHT22;16676;51.202;6.774;2023-04-10T11:38:54;18.30;56.40
29775;DHT22;16676;51.202;6.774;2023-04-10T11:43:11;18.40;56.40
29775;DHT22;16676;51.202;6.774;2023-04-10T11:47:13;18.40;56.50
29775;DHT22;16676;51.202;6.774;2023-04-10T11:51:17;18.40;56.40
29775;DHT22;16676;51.202;6.774;2023-04-10T11:55:19;18.40;56.40
29775;DHT22;16676;51.202;6.774;2023-04-10T11:59:21;18.30;56.50
29775;DHT22;16676;51.202;6.774;2023-04-10T12:03:37;18.30;56.40
29775;DHT22;16676;51.202;6.774;2023-04-10T12:07:42;18.40;56.50
29775;DHT22;16676;51.202;6.774;2023-04-10T12:11:51;18.40;56.60
29775;DHT22;16676;51.202;6.774;2023-04-10T12:15:53;18.40;56.50
29775;DHT22;16676;51.202;6.774;2023-04-10T12:19:58;18.40;56.60
29775;DHT22;16676;51.202;6.774;2023-04-10T12:24:02;18.40;56.50
29775;DHT22;16676;51.202;6.774;2023-04-10T12:28:04;18.40;56.40
29775;DHT22;16676;51.202;6.774;2023-04-10T12:32:07;18.40;57.10
29775;DHT22;16676;51.202;6.774;2023-04-10T12:36:19;18.40;56.60
29775;DHT22;16676;51.202;6.774;2023-04-10T12:40:23;18.40;56.50
29775;DHT22;16676;51.202;6.774;2023-04-10T12:44:25;18.40;56.40
29775;DHT22;16676;51.202;6.774;2023-04-10T12:48:27;18.50;56.30
29775;DHT22;16676;51.202;6.774;2023-04-10T12:52:29;18.50;56.20
29775;DHT22;16676;51.202;6.774;2023-04-10T12:56:41;18.50;56.20
29775;DHT22;16676;51.202;6.774;2023-04-10T13:00:43;18.50;56.30
29775;DHT22;16676;51.202;6.774;2023-04-10T13:04:45;18.60;56.20
29775;DHT22;16676;51.202;6.774;2023-04-10T13:08:47;18.60;56.20
29775;DHT22;16676;51.202;6.774;2023-04-10T13:12:53;18.60;56.20
29775;DHT22;16676;51.202;6.774;2023-04-10T13:16:55;18.50;56.20
29775;DHT22;16676;51.202;6.774;2023-04-10T13:20:57;18.50;56.30
29775;DHT22;16676;51.202;6.774;2023-04-10T13:24:59;18.50;56.40
29775;DHT22;16676;51.202;6.774;2023-04-10T13:29:04;18.50;56.40
29775;DHT22;16676;51.202;6.774;2023-04-10T13:33:06;18.50;56.30
29775;DHT22;16676;51.202;6.774;2023-04-10T13:37:09;18.50;56.30
29775;DHT22;16676;51.202;6.774;2023-04-10T13:41:12;18.50;56.30
29775;DHT22;16676;51.202;6.774;2023-04-10T13:45:16;18.50;56.30
29775;DHT22;16676;51.202;6.774;2023-04-10T13:49:18;18.50;56.10
29775;DHT22;16676;51.202;6.774;2023-04-10T13:53:20;18.50;56.10
29775;DHT22;16676;51.202;6.774;2023-04-10T13:57:21;18.50;56.20
29775;DHT22;16676;51.202;6.774;2023-04-10T14:01:25;18.10;47.50
29775;DHT22;16676;51.202;6.774;2023-04-10T14:05:27;17.60;44.30
29775;DHT22;16676;51.202;6.774;2023-04-10T14:09:29;17.40;43.70
29775;DHT22;16676;51.202;6.774;2023-04-10T14:13:30;17.30;42.80
29775;DHT22;16676;51.202;6.774;2023-04-10T14:17:34;17.40;40.70
29775;DHT22;16676;51.202;6.774;2023-04-10T14:21:36;17.80;41.20
29775;DHT22;16676;51.202;6.774;2023-04-10T14:25:40;18.00;41.80
29775;DHT22;16676;51.202;6.774;2023-04-10T14:29:41;18.00;41.30
29775;DHT22;16676;51.202;6.774;2023-04-10T14:33:45;18.10;40.60
29775;DHT22;16676;51.202;6.774;2023-04-10T14:37:47;18.10;41.10
29775;DHT22;16676;51.202;6.774;2023-04-10T14:41:49;18.10;41.40
29775;DHT22;16676;51.202;6.774;2023-04-10T14:45:51;18.10;40.70
29775;DHT22;16676;51.202;6.774;2023-04-10T14:49:54;18.10;41.20
29775;DHT22;16676;51.202;6.774;2023-04-10T14:53:56;18.10;41.10
29775;DHT22;16676;51.202;6.774;2023-04-10T14:57:58;18.10;41.20
29775;DHT22;16676;51.202;6.774;2023-04-10T15:02:00;18.30;41.40
29775;DHT22;16676;51.202;6.774;2023-04-10T15:06:03;18.50;43.10
29775;DHT22;16676;51.202;6.774;2023-04-10T15:10:06;18.50;43.60
29775;DHT22;16676;51.202;6.774;2023-04-10T15:14:10;18.60;44.80
29775;DHT22;16676;51.202;6.774;2023-04-10T15:18:12;18.60;45.50
29775;DHT22;16676;51.202;6.774;2023-04-10T15:22:15;18.60;46.40
29775;DHT22;16676;51.202;6.774;2023-04-10T15:26:17;18.60;46.80
29775;DHT22;16676;51.202;6.774;2023-04-10T15:30:21;18.60;47.10
29775;DHT22;16676;51.202;6.774;2023-04-10T15:34:22;18.60;47.50
29775;DHT22;16676;51.202;6.774;2023-04-10T15:38:26;18.60;47.80
29775;DHT22;16676;51.202;6.774;2023-04-10T15:42:28;18.60;48.10
29775;DHT22;16676;51.202;6.774;2023-04-10T15:46:30;18.60;48.30
29775;DHT22;16676;51.202;6.774;2023-04-10T15:50:32;18.60;48.50
29775;DHT22;16676;51.202;6.774;2023-04-10T15:54:38;18.60;48.90
29775;DHT22;16676;51.202;6.774;2023-04-10T15:58:40;18.60;48.90
29775;DHT22;16676;51.202;6.774;2023-04-10T16:02:42;18.60;49.20
29775;DHT22;16676;51.202;6.774;2023-04-10T16:06:44;18.60;49.30
29775;DHT22;16676;51.202;6.774;2023-04-10T16:10:47;18.60;49.60
29775;DHT22;16676;51.202;6.774;2023-04-10T16:14:49;18.60;49.80
29775;DHT22;16676;51.202;6.774;2023-04-10T16:18:51;18.60;50.00
29775;DHT22;16676;51.202;6.774;2023-04-10T16:22:53;18.60;50.20
29775;DHT22;16676;51.202;6.774;2023-04-10T16:26:57;18.60;50.30
29775;DHT22;16676;51.202;6.774;2023-04-10T16:30:58;18.50;51.50
29775;DHT22;16676;51.202;6.774;2023-04-10T16:35:00;18.60;55.10
29775;DHT22;16676;51.202;6.774;2023-04-10T16:39:02;18.80;56.40
29775;DHT22;16676;51.202;6.774;2023-04-10T16:43:06;18.90;57.30
29775;DHT22;16676;51.202;6.774;2023-04-10T16:47:08;19.00;58.70
29775;DHT22;16676;51.202;6.774;2023-04-10T16:51:14;19.20;59.90
29775;DHT22;16676;51.202;6.774;2023-04-10T16:55:16;19.30;61.00
29775;DHT22;16676;51.202;6.774;2023-04-10T16:59:19;19.50;61.30
29775;DHT22;16676;51.202;6.774;2023-04-10T17:03:21;19.50;60.20
29775;DHT22;16676;51.202;6.774;2023-04-10T17:07:23;19.50;61.10
29775;DHT22;16676;51.202;6.774;2023-04-10T17:11:25;19.60;60.50
29775;DHT22;16676;51.202;6.774;2023-04-10T17:15:29;19.60;61.50
29775;DHT22;16676;51.202;6.774;2023-04-10T17:19:31;19.60;61.30
29775;DHT22;16676;51.202;6.774;2023-04-10T17:23:33;19.60;62.20
29775;DHT22;16676;51.202;6.774;2023-04-10T17:27:35;19.70;63.40
29775;DHT22;16676;51.202;6.774;2023-04-10T17:31:38;19.70;62.80
29775;DHT22;16676;51.202;6.774;2023-04-10T17:35:41;19.80;63.20
29775;DHT22;16676;51.202;6.774;2023-04-10T17:39:43;19.80;62.60
29775;DHT22;16676;51.202;6.774;2023-04-10T17:43:45;19.70;62.10
29775;DHT22;16676;51.202;6.774;2023-04-10T17:47:48;19.80;62.70
29775;DHT22;16676;51.202;6.774;2023-04-10T17:51:50;19.70;62.40
29775;DHT22;16676;51.202;6.774;2023-04-10T17:55:52;19.70;62.30
29775;DHT22;16676;51.202;6.774;2023-04-10T17:59:54;19.70;63.50
29775;DHT22;16676;51.202;6.774;2023-04-10T18:03:58;19.70;62.40
29775;DHT22;16676;51.202;6.774;2023-04-10T18:08:02;19.70;63.30
29775;DHT22;16676;51.202;6.774;2023-04-10T18:12:04;19.70;62.10
29775;DHT22;16676;51.202;6.774;2023-04-10T18:16:07;19.70;63.70
29775;DHT22;16676;51.202;6.774;2023-04-10T18:20:11;19.60;62.20
29775;DHT22;16676;51.202;6.774;2023-04-10T18:24:14;19.60;63.10
29775;DHT22;16676;51.202;6.774;2023-04-10T18:28:16;19.60;64.70
29775;DHT22;16676;51.202;6.774;2023-04-10T18:32:18;19.60;64.80
29775;DHT22;16676;51.202;6.774;2023-04-10T18:36:21;19.60;64.20
29775;DHT22;16676;51.202;6.774;2023-04-10T18:40:23;19.50;65.70
29775;DHT22;16676;51.202;6.774;2023-04-10T18:44:25;19.50;64.00
29775;DHT22;16676;51.202;6.774;2023-04-10T18:48:27;19.50;66.10
29775;DHT22;16676;51.202;6.774;2023-04-10T18:52:31;19.50;65.80
29775;DHT22;16676;51.202;6.774;2023-04-10T18:56:33;19.50;65.00
29775;DHT22;16676;51.202;6.774;2023-04-10T19:00:35;19.50;65.60
29775;DHT22;16676;51.202;6.774;2023-04-10T19:04:37;19.50;66.00
29775;DHT22;16676;51.202;6.774;2023-04-10T19:08:40;19.50;65.60
29775;DHT22;16676;51.202;6.774;2023-04-10T19:12:42;19.40;65.20
29775;DHT22;16676;51.202;6.774;2023-04-10T19:16:44;19.30;66.20
29775;DHT22;16676;51.202;6.774;2023-04-10T19:20:47;19.30;66.50
29775;DHT22;16676;51.202;6.774;2023-04-10T19:24:50;19.30;66.20
29775;DHT22;16676;51.202;6.774;2023-04-10T19:28:52;19.40;67.00
29775;DHT22;16676;51.202;6.774;2023-04-10T19:32:54;19.40;67.40
29775;DHT22;16676;51.202;6.774;2023-04-10T19:36:56;19.40;67.30
29775;DHT22;16676;51.202;6.774;2023-04-10T19:40:59;19.40;66.90
29775;DHT22;16676;51.202;6.774;2023-04-10T19:45:01;19.40;67.40
29775;DHT22;16676;51.202;6.774;2023-04-10T19:49:03;19.40;68.00
29775;DHT22;16676;51.202;6.774;2023-04-10T19:53:05;19.30;68.10
29775;DHT22;16676;51.202;6.774;2023-04-10T19:57:09;19.30;68.40
29775;DHT22;16676;51.202;6.774;2023-04-10T20:01:11;19.30;68.90
29775;DHT22;16676;51.202;6.774;2023-04-10T20:05:13;19.30;68.80
29775;DHT22;16676;51.202;6.774;2023-04-10T20:09:15;19.30;68.80
29775;DHT22;16676;51.202;6.774;2023-04-10T20:13:19;19.20;69.60
29775;DHT22;16676;51.202;6.774;2023-04-10T20:17:21;19.20;70.50
29775;DHT22;16676;51.202;6.774;2023-04-10T20:21:22;19.20;70.70
29775;DHT22;16676;51.202;6.774;2023-04-10T20:25:24;19.20;70.60
29775;DHT22;16676;51.202;6.774;2023-04-10T20:29:28;19.20;69.90
29775;DHT22;16676;51.202;6.774;2023-04-10T20:33:30;19.10;70.80
29775;DHT22;16676;51.202;6.774;2023-04-10T20:37:32;19.10;70.60
29775;DHT22;16676;51.202;6.774;2023-04-10T20:41:33;19.10;71.60
29775;DHT22;16676;51.202;6.774;2023-04-10T20:45:37;19.10;71.40
29775;DHT22;16676;51.202;6.774;2023-04-10T20:49:39;19.10;71.50
29775;DHT22;16676;51.202;6.774;2023-04-10T20:53:41;19.10;72.20
29775;DHT22;16676;51.202;6.774;2023-04-10T20:57:43;19.00;71.10
29775;DHT22;16676;51.202;6.774;2023-04-10T21:01:46;19.00;71.60
29775;DHT22;16676;51.202;6.774;2023-04-10T21:05:48;19.00;70.10
29775;DHT22;16676;51.202;6.774;2023-04-10T21:09:50;19.00;71.00
29775;DHT22;16676;51.202;6.774;2023-04-10T21:13:52;19.00;71.60
29775;DHT22;16676;51.202;6.774;2023-04-10T21:17:55;19.00;72.20
29775;DHT22;16676;51.202;6.774;2023-04-10T21:21:57;18.90;71.50
29775;DHT22;16676;51.202;6.774;2023-04-10T21:25:59;18.90;71.30
29775;DHT22;16676;51.202;6.774;2023-04-10T21:30:01;18.90;71.40
29775;DHT22;16676;51.202;6.774;2023-04-10T21:34:04;18.80;71.90
29775;DHT22;16676;51.202;6.774;2023-04-10T21:38:07;18.80;72.20
29775;DHT22;16676;51.202;6.774;2023-04-10T21:42:08;18.70;72.10
29775;DHT22;16676;51.202;6.774;2023-04-10T21:46:10;18.70;72.10
29775;DHT22;16676;51.202;6.774;2023-04-10T21:50:14;18.70;72.70
29775;DHT22;16676;51.202;6.774;2023-04-10T21:54:15;18.70;72.30
29775;DHT22;16676;51.202;6.774;2023-04-10T21:58:17;18.70;72.50
29775;DHT22;16676;51.202;6.774;2023-04-10T22:02:19;18.70;72.70
29775;DHT22;16676;51.202;6.774;2023-04-10T22:06:23;18.60;74.10
29775;DHT22;16676;51.202;6.774;2023-04-10T22:10:25;18.60;74.20
29775;DHT22;16676;51.202;6.774;2023-04-10T22:14:27;18.60;72.80
29775;DHT22;16676;51.202;6.774;2023-04-10T22:18:29;18.60;73.30
29775;DHT22;16676;51.202;6.774;2023-04-10T22:22:32;18.60;74.10
29775;DHT22;16676;51.202;6.774;2023-04-10T22:26:34;18.60;74.10
29775;DHT22;16676;51.202;6.774;2023-04-10T22:30:36;18.60;74.00
29775;DHT22;16676;51.202;6.774;2023-04-10T22:34:38;18.60;73.80
29775;DHT22;16676;51.202;6.774;2023-04-10T22:38:41;18.60;74.30
29775;DHT22;16676;51.202;6.774;2023-04-10T22:42:43;18.60;74.40
29775;DHT22;16676;51.202;6.774;2023-04-10T22:46:45;18.60;74.60
29775;DHT22;16676;51.202;6.774;2023-04-10T22:50:48;18.50;74.20
29775;DHT22;16676;51.202;6.774;2023-04-10T22:54:51;18.50;74.50
29775;DHT22;16676;51.202;6.774;2023-04-10T22:58:53;18.60;74.70
29775;DHT22;16676;51.202;6.774;2023-04-10T23:02:55;18.50;75.40
29775;DHT22;16676;51.202;6.774;2023-04-10T23:06:57;18.50;75.10
29775;DHT22;16676;51.202;6.774;2023-04-10T23:11:00;18.50;75.00
29775;DHT22;16676;51.202;6.774;2023-04-10T23:15:03;18.50;74.70
29775;DHT22;16676;51.202;6.774;2023-04-10T23:19:05;18.50;74.60
29775;DHT22;16676;51.202;6.774;2023-04-10T23:23:07;18.50;75.30
29775;DHT22;16676;51.202;6.774;2023-04-10T23:27:10;18.40;75.70
29775;DHT22;16676;51.202;6.774;2023-04-10T23:31:12;18.40;75.10
29775;DHT22;16676;51.202;6.774;2023-04-10T23:35:14;18.40;74.80
29775;DHT22;16676;51.202;6.774;2023-04-10T23:39:16;18.40;75.10
29775;DHT22;16676;51.202;6.774;2023-04-10T23:43:19;18.40;75.40
29775;DHT22;16676;51.202;6.774;2023-04-10T23:47:21;18.40;75.40
29775;DHT22;16676;51.202;6.774;2023-04-10T23:51:23;18.40;75.40
29775;DHT22;16676;51.202;6.774;2023-04-10T23:55:26;18.30;75.50
29775;DHT22;16676;51.202;6.774;2023-04-10T23:59:29;18.40;76.00
